Time;durP1;ratioP1;P1;durP2;ratioP2;P2;SDS_P1;SDS_P2;PMS_P1;PMS_P2;Temp;Humidity;BMP_temperature;BMP_pressure;BME280_temperature;BME280_humidity;BME280_pressure;Samples;Min_cycle;Max_cycle;Signal;HPM_P1;HPM_P2
2021/01/10 00:00:21;;;;;;;1.50;1.40;;;21.80;51.30;;;;;;5096500;28;20562;-69
2021/01/10 00:02:48;;;;;;;2.43;1.80;;;21.70;51.30;;;;;;5096668;28;20193;-68
2021/01/10 00:05:25;;;;;;;2.57;1.50;;;21.70;51.80;;;;;;5096256;28;20455;-67
2021/01/10 00:07:52;;;;;;;2.70;1.73;;;21.70;51.30;;;;;;5096540;28;20929;-68
2021/01/10 00:10:19;;;;;;;2.80;1.70;;;21.70;51.40;;;;;;5096250;28;20387;-67
2021/01/10 00:12:45;;;;;;;1.77;1.53;;;21.70;51.40;;;;;;5096212;28;20396;-68
2021/01/10 00:15:13;;;;;;;2.47;1.70;;;21.70;51.40;;;;;;5096283;28;20479;-68
2021/01/10 00:17:40;;;;;;;2.33;1.83;;;21.70;51.40;;;;;;5094694;28;20442;-68
2021/01/10 00:20:08;;;;;;;2.53;2.07;;;21.70;51.40;;;;;;5096255;28;20396;-68
2021/01/10 00:22:34;;;;;;;2.73;1.33;;;21.60;51.30;;;;;;5095969;28;20803;-68
2021/01/10 00:24:59;;;;;;;1.70;1.33;;;21.60;51.40;;;;;;5095849;28;20542;-67
2021/01/10 00:27:26;;;;;;;2.27;1.70;;;21.60;51.40;;;;;;5095883;28;20261;-68
2021/01/10 00:29:52;;;;;;;1.70;1.60;;;21.60;51.40;;;;;;5095818;28;20173;-68
2021/01/10 00:32:21;;;;;;;2.50;1.47;;;21.70;51.40;;;;;;5096086;28;20952;-68
2021/01/10 00:34:47;;;;;;;2.53;1.53;;;21.70;51.40;;;;;;5095804;28;20404;-67
2021/01/10 00:37:17;;;;;;;1.67;1.43;;;21.60;51.40;;;;;;5095634;28;20432;-68
2021/01/10 00:39:43;;;;;;;1.90;1.37;;;21.60;51.40;;;;;;5095960;28;20177;-68
2021/01/10 00:42:11;;;;;;;2.87;1.90;;;21.60;51.40;;;;;;5095448;28;20922;-67
2021/01/10 00:44:37;;;;;;;3.70;2.03;;;21.60;51.40;;;;;;5095440;28;20659;-68
2021/01/10 00:47:04;;;;;;;2.00;1.30;;;21.60;51.40;;;;;;5095721;28;20404;-68
2021/01/10 00:49:29;;;;;;;2.60;2.00;;;21.60;51.40;;;;;;5094195;28;20169;-69
2021/01/10 00:51:55;;;;;;;1.67;1.50;;;21.60;51.40;;;;;;5093251;28;20754;-68
2021/01/10 00:54:21;;;;;;;2.50;1.60;;;21.60;51.40;;;;;;5095002;28;20442;-68
2021/01/10 00:56:48;;;;;;;2.07;1.40;;;21.60;51.40;;;;;;5095597;28;20178;-68
2021/01/10 00:59:14;;;;;;;3.63;1.40;;;21.60;51.40;;;;;;5095593;28;20730;-68
2021/01/10 01:01:39;;;;;;;2.53;1.30;;;21.60;51.40;;;;;;5095228;28;20427;-68
2021/01/10 01:04:05;;;;;;;1.93;1.53;;;21.60;51.40;;;;;;5093820;28;20452;-68
2021/01/10 01:06:31;;;;;;;4.17;1.33;;;21.60;51.40;;;;;;5095007;28;20300;-68
2021/01/10 01:08:57;;;;;;;2.70;2.07;;;21.60;51.40;;;;;;5095074;28;20186;-68
2021/01/10 01:11:26;;;;;;;2.30;1.90;;;21.60;51.40;;;;;;5095338;28;20491;-68
2021/01/10 01:13:52;;;;;;;1.97;1.30;;;21.60;51.40;;;;;;5095081;28;20166;-68
2021/01/10 01:16:18;;;;;;;2.33;1.40;;;21.60;51.40;;;;;;5095230;28;20407;-68
2021/01/10 01:18:43;;;;;;;5.40;1.80;;;21.60;51.50;;;;;;5095152;28;20225;-68
2021/01/10 01:21:14;;;;;;;1.60;1.33;;;21.60;51.50;;;;;;5094853;28;20265;-68
2021/01/10 01:23:39;;;;;;;1.73;1.33;;;21.60;51.50;;;;;;5094531;28;20189;-68
2021/01/10 01:26:05;;;;;;;1.43;1.33;;;21.60;51.50;;;;;;5094087;28;20469;-68
2021/01/10 01:28:31;;;;;;;2.47;1.37;;;21.60;51.50;;;;;;5094731;28;20265;-68
2021/01/10 01:30:56;;;;;;;2.50;1.60;;;21.60;51.50;;;;;;5094996;28;20169;-68
2021/01/10 01:33:22;;;;;;;2.50;1.33;;;21.60;51.60;;;;;;5094496;28;20205;-68
2021/01/10 01:35:47;;;;;;;1.97;1.53;;;21.60;51.50;;;;;;5094646;28;20161;-68
2021/01/10 01:38:13;;;;;;;1.80;1.50;;;21.50;51.50;;;;;;5094503;28;20672;-68
2021/01/10 01:40:38;;;;;;;3.00;1.60;;;21.50;51.50;;;;;;5094500;28;20169;-68
2021/01/10 01:43:07;;;;;;;2.43;1.60;;;21.60;51.60;;;;;;5094636;28;20245;-68
2021/01/10 01:45:32;;;;;;;2.27;1.50;;;21.60;51.60;;;;;;5094653;28;20162;-68
2021/01/10 01:48:01;;;;;;;1.70;1.40;;;21.50;51.50;;;;;;5093957;28;20480;-68
2021/01/10 01:50:26;;;;;;;5.30;1.53;;;21.50;51.50;;;;;;5094273;28;20173;-68
2021/01/10 01:52:52;;;;;;;2.10;1.57;;;21.50;51.50;;;;;;5094290;28;20412;-68
2021/01/10 01:55:18;;;;;;;1.93;1.37;;;21.50;51.50;;;;;;5094224;28;20268;-68
2021/01/10 01:57:43;;;;;;;1.93;1.37;;;21.50;51.40;;;;;;5094073;28;20231;-68
2021/01/10 02:00:10;;;;;;;3.20;1.73;;;21.50;51.50;;;;;;5094148;28;20189;-68
2021/01/10 02:02:35;;;;;;;2.50;1.20;;;21.50;51.50;;;;;;5094421;28;20252;-68
2021/01/10 02:05:07;;;;;;;3.83;1.47;;;21.50;51.40;;;;;;5093947;28;20546;-68
2021/01/10 02:07:52;;;;;;;1.70;1.60;;;21.60;51.50;;;;;;5093933;28;20217;-68
2021/01/10 02:10:23;;;;;;;1.63;1.40;;;21.60;51.50;;;;;;5094013;28;20384;-68
2021/01/10 02:12:55;;;;;;;6.23;1.60;;;21.60;51.60;;;;;;5092542;28;20412;-68
2021/01/10 02:15:23;;;;;;;2.70;1.80;;;21.60;51.50;;;;;;5094105;28;20388;-68
2021/01/10 02:17:52;;;;;;;2.43;1.63;;;21.60;51.50;;;;;;5093768;28;20431;-68
2021/01/10 02:20:22;;;;;;;2.80;1.50;;;21.60;51.50;;;;;;5093760;28;20408;-67
2021/01/10 02:22:52;;;;;;;2.50;1.50;;;21.60;51.40;;;;;;5093753;28;20419;-68
2021/01/10 02:25:18;;;;;;;1.80;1.27;;;21.60;51.50;;;;;;5093866;28;20530;-68
2021/01/10 02:27:45;;;;;;;2.73;1.53;;;21.60;51.40;;;;;;5093861;28;20952;-68
2021/01/10 02:30:13;;;;;;;1.77;1.27;;;21.60;51.40;;;;;;5093549;28;20446;-68
2021/01/10 02:32:43;;;;;;;1.53;1.30;;;21.60;51.40;;;;;;5093523;28;20547;-66
2021/01/10 02:35:11;;;;;;;3.40;1.70;;;21.60;51.40;;;;;;5093728;28;20427;-68
2021/01/10 02:37:52;;;;;;;1.27;1.13;;;21.60;51.40;;;;;;5093430;28;20428;-68
2021/01/10 02:40:38;;;;;;;1.40;1.23;;;21.60;51.40;;;;;;5093744;28;20384;-67
2021/01/10 02:43:07;;;;;;;2.93;1.70;;;21.60;51.40;;;;;;5093374;28;20407;-68
2021/01/10 02:45:34;;;;;;;3.20;1.53;;;21.60;51.50;;;;;;5093368;28;20421;-68
2021/01/10 02:48:00;;;;;;;2.20;1.30;;;21.60;51.50;;;;;;5091982;28;20440;-68
2021/01/10 02:50:27;;;;;;;2.20;1.40;;;21.60;52.10;;;;;;5093553;28;20461;-68
2021/01/10 02:52:53;;;;;;;1.90;1.50;;;21.60;51.50;;;;;;5093253;28;20169;-68
2021/01/10 02:55:18;;;;;;;2.00;1.20;;;21.60;51.50;;;;;;5093471;28;20473;-68
2021/01/10 02:57:55;;;;;;;1.97;1.40;;;21.50;51.50;;;;;;5093459;28;20454;-68
2021/01/10 03:00:23;;;;;;;2.20;1.40;;;21.60;51.50;;;;;;5093119;28;20622;-67
2021/01/10 03:02:51;;;;;;;1.80;1.30;;;21.50;51.50;;;;;;5093199;28;20424;-68
2021/01/10 03:05:17;;;;;;;1.70;1.30;;;21.50;51.50;;;;;;5093041;28;20533;-68
2021/01/10 03:07:45;;;;;;;1.97;1.63;;;21.50;51.50;;;;;;5092001;28;20428;-68
2021/01/10 03:10:12;;;;;;;2.67;1.90;;;21.50;51.50;;;;;;5093015;28;20422;-68
2021/01/10 03:12:38;;;;;;;2.07;1.40;;;21.50;51.50;;;;;;5092827;28;20431;-67
2021/01/10 03:15:06;;;;;;;1.30;1.20;;;21.50;51.50;;;;;;5093277;28;20802;-68
2021/01/10 03:17:41;;;;;;;3.10;1.30;;;21.50;51.50;;;;;;5093218;28;20194;-68
2021/01/10 03:20:08;;;;;;;1.77;1.50;;;21.50;51.50;;;;;;5092986;28;20410;-68
2021/01/10 03:22:35;;;;;;;2.50;1.57;;;21.50;51.50;;;;;;5093067;28;20414;-68
2021/01/10 03:25:01;;;;;;;1.80;1.50;;;21.50;51.50;;;;;;5093415;28;20451;-68
2021/01/10 03:27:27;;;;;;;1.70;1.20;;;21.50;51.50;;;;;;5092899;28;20925;-68
2021/01/10 03:29:53;;;;;;;4.60;1.40;;;21.50;51.50;;;;;;5093079;28;20414;-68
2021/01/10 03:32:19;;;;;;;3.23;1.47;;;21.50;51.50;;;;;;5092895;28;20216;-68
2021/01/10 03:34:44;;;;;;;2.03;1.33;;;21.50;52.10;;;;;;5093131;28;20412;-68
2021/01/10 03:37:10;;;;;;;1.43;1.00;;;21.50;51.50;;;;;;5092989;28;20223;-68
2021/01/10 03:39:36;;;;;;;2.03;1.30;;;21.50;51.50;;;;;;5093628;28;20265;-68
2021/01/10 03:42:02;;;;;;;2.33;1.40;;;21.50;51.50;;;;;;5093089;28;20199;-68
2021/01/10 03:44:27;;;;;;;1.43;1.23;;;21.50;51.50;;;;;;5092499;28;20205;-68
2021/01/10 03:46:54;;;;;;;2.40;1.40;;;21.50;51.50;;;;;;5092917;28;20170;-67
2021/01/10 03:49:19;;;;;;;1.70;1.33;;;21.50;51.50;;;;;;5092668;28;20181;-67
2021/01/10 03:51:45;;;;;;;2.10;1.40;;;21.50;51.50;;;;;;5092722;28;20408;-68
2021/01/10 03:54:11;;;;;;;1.80;1.33;;;21.50;51.50;;;;;;5092748;28;20265;-68
2021/01/10 03:56:36;;;;;;;1.47;1.10;;;21.50;51.50;;;;;;5092658;28;20533;-68
2021/01/10 03:59:02;;;;;;;2.50;1.57;;;21.50;51.50;;;;;;5092590;28;20200;-68
2021/01/10 04:01:28;;;;;;;1.43;1.20;;;21.50;51.50;;;;;;5091502;28;20190;-68
2021/01/10 04:03:53;;;;;;;1.80;1.30;;;21.50;51.50;;;;;;5092726;28;20550;-68
2021/01/10 04:06:19;;;;;;;3.13;1.37;;;21.50;51.50;;;;;;5092585;28;20162;-68
2021/01/10 04:08:47;;;;;;;1.63;1.30;;;21.50;51.50;;;;;;5092500;28;20263;-68
2021/01/10 04:11:14;;;;;;;1.90;1.20;;;21.50;51.50;;;;;;5092912;28;20173;-68
2021/01/10 04:13:40;;;;;;;2.20;1.50;;;21.50;51.50;;;;;;5096466;28;20419;-68
2021/01/10 04:16:06;;;;;;;1.77;1.17;;;21.50;51.50;;;;;;5096200;28;20414;-68
2021/01/10 04:18:32;;;;;;;1.80;1.30;;;21.50;51.50;;;;;;5096030;28;20423;-68
2021/01/10 04:20:58;;;;;;;1.97;1.20;;;21.50;51.50;;;;;;5096084;28;20400;-68
2021/01/10 04:23:23;;;;;;;1.50;1.40;;;21.50;51.50;;;;;;5095930;28;20415;-67
2021/01/10 04:25:50;;;;;;;1.87;1.50;;;21.50;51.50;;;;;;5096258;28;20173;-68
2021/01/10 04:28:16;;;;;;;2.20;1.60;;;21.50;51.50;;;;;;5095803;28;20190;-65
2021/01/10 04:30:42;;;;;;;2.10;1.40;;;21.40;51.50;;;;;;5096416;28;20430;-68
2021/01/10 04:33:08;;;;;;;1.87;1.20;;;21.50;51.60;;;;;;5096137;28;20380;-68
2021/01/10 04:35:34;;;;;;;2.20;1.50;;;21.50;51.60;;;;;;5094500;28;20181;-68
2021/01/10 04:37:59;;;;;;;2.00;1.27;;;21.50;51.60;;;;;;5095713;28;20823;-68
2021/01/10 04:40:25;;;;;;;2.03;1.43;;;21.50;51.60;;;;;;5096264;28;20645;-68
2021/01/10 04:42:52;;;;;;;1.43;1.13;;;21.50;51.60;;;;;;5095437;28;20177;-68
2021/01/10 04:45:18;;;;;;;1.60;1.20;;;21.50;51.60;;;;;;5095517;28;20458;-68
2021/01/10 04:47:43;;;;;;;1.47;1.10;;;21.40;51.50;;;;;;5095762;28;20958;-68
2021/01/10 04:50:10;;;;;;;1.90;1.33;;;21.50;51.60;;;;;;5095681;28;20415;-68
2021/01/10 04:52:38;;;;;;;1.97;1.30;;;21.50;51.60;;;;;;5095486;28;20219;-68
2021/01/10 04:55:05;;;;;;;1.97;1.37;;;21.40;51.50;;;;;;5095449;28;20412;-68
2021/01/10 04:57:33;;;;;;;1.47;1.37;;;21.40;51.60;;;;;;5095388;28;20956;-68
2021/01/10 04:59:59;;;;;;;1.57;1.20;;;21.40;51.60;;;;;;5095218;28;20470;-68
2021/01/10 05:02:26;;;;;;;1.63;1.17;;;21.40;51.70;;;;;;5095935;28;20388;-68
2021/01/10 05:04:53;;;;;;;1.60;1.30;;;21.40;51.70;;;;;;5095397;28;20451;-68
2021/01/10 05:07:19;;;;;;;1.67;1.10;;;21.40;51.70;;;;;;5095096;28;20423;-68
2021/01/10 05:09:46;;;;;;;1.53;1.13;;;21.40;51.70;;;;;;5095398;28;20495;-68
2021/01/10 05:12:11;;;;;;;1.20;1.03;;;21.30;51.60;;;;;;5095321;28;20178;-68
2021/01/10 05:14:37;;;;;;;1.50;1.23;;;21.30;51.60;;;;;;5095306;28;20582;-68
2021/01/10 05:17:03;;;;;;;2.00;1.23;;;21.30;51.60;;;;;;5093649;28;20174;-68
2021/01/10 05:19:30;;;;;;;1.73;1.57;;;21.30;51.70;;;;;;5093674;28;20708;-68
2021/01/10 05:21:55;;;;;;;1.43;1.30;;;21.30;51.60;;;;;;5093771;28;20185;-68
2021/01/10 05:24:21;;;;;;;2.57;1.33;;;21.30;51.60;;;;;;5094808;28;20459;-68
2021/01/10 05:26:47;;;;;;;1.70;1.20;;;21.30;51.70;;;;;;5095089;28;20647;-68
2021/01/10 05:29:14;;;;;;;1.70;1.10;;;21.30;51.60;;;;;;5094661;28;20672;-68
2021/01/10 05:31:45;;;;;;;1.50;1.10;;;21.30;51.70;;;;;;5094717;28;20407;-68
2021/01/10 05:34:16;;;;;;;1.70;1.50;;;21.30;51.70;;;;;;5094682;28;20945;-68
2021/01/10 05:36:42;;;;;;;1.80;1.50;;;21.30;51.60;;;;;;5094626;28;20414;-68
2021/01/10 05:39:20;;;;;;;1.53;1.10;;;21.30;51.60;;;;;;5094467;28;20459;-67
2021/01/10 05:41:53;;;;;;;1.43;1.17;;;21.40;51.70;;;;;;5094763;28;20439;-68
2021/01/10 05:44:19;;;;;;;1.40;1.27;;;21.40;51.70;;;;;;5094448;28;20481;-68
2021/01/10 05:46:45;;;;;;;1.50;1.30;;;21.40;51.70;;;;;;5094427;28;20396;-68
2021/01/10 05:49:21;;;;;;;1.30;1.20;;;21.40;51.60;;;;;;5094651;28;20843;-68
2021/01/10 05:51:48;;;;;;;1.67;1.10;;;21.40;51.60;;;;;;5094611;28;20499;-68
2021/01/10 05:54:36;;;;;;;1.47;1.23;;;21.40;51.60;;;;;;5094303;28;20404;-68
2021/01/10 05:57:03;;;;;;;1.80;1.40;;;21.40;51.50;;;;;;5094190;28;20421;-68
2021/01/10 05:59:31;;;;;;;1.63;1.40;;;21.40;51.60;;;;;;5094128;28;20411;-68
2021/01/10 06:01:58;;;;;;;1.43;1.27;;;21.40;51.60;;;;;;5092798;28;20431;-67
2021/01/10 06:04:24;;;;;;;1.43;1.13;;;21.40;51.60;;;;;;5094783;28;20515;-68
2021/01/10 06:06:50;;;;;;;2.13;1.23;;;21.40;51.50;;;;;;5093967;28;20406;-67
2021/01/10 06:09:15;;;;;;;1.67;1.00;;;21.40;51.60;;;;;;5094490;28;20404;-68
2021/01/10 06:11:41;;;;;;;2.20;1.20;;;21.50;51.60;;;;;;5093917;28;20219;-67
2021/01/10 06:14:07;;;;;;;1.43;1.20;;;21.50;51.60;;;;;;5093886;28;20177;-68
2021/01/10 06:16:35;;;;;;;1.90;1.10;;;21.40;51.40;;;;;;5094095;28;20173;-68
2021/01/10 06:19:11;;;;;;;3.03;1.07;;;21.50;51.50;;;;;;5093755;28;20189;-68
2021/01/10 06:21:37;;;;;;;1.43;1.10;;;21.50;51.50;;;;;;5094057;28;20764;-68
2021/01/10 06:24:05;;;;;;;1.20;1.00;;;21.40;51.40;;;;;;5093982;28;20436;-68
2021/01/10 06:26:32;;;;;;;2.50;1.07;;;21.50;51.50;;;;;;5093971;28;20404;-68
2021/01/10 06:29:01;;;;;;;1.47;1.13;;;21.50;51.50;;;;;;5093596;28;20942;-68
2021/01/10 06:31:32;;;;;;;1.27;1.10;;;21.50;51.60;;;;;;5093573;28;20407;-68
2021/01/10 06:34:09;;;;;;;1.77;1.27;;;21.50;51.60;;;;;;5093173;28;20503;-68
2021/01/10 06:36:39;;;;;;;1.13;1.03;;;21.50;51.50;;;;;;5093524;28;20444;-68
2021/01/10 06:39:10;;;;;;;1.63;1.00;;;21.50;51.50;;;;;;5093671;28;20428;-66
2021/01/10 06:41:39;;;;;;;1.43;1.10;;;21.50;51.50;;;;;;5094305;28;20410;-68
2021/01/10 06:44:06;;;;;;;2.00;1.70;;;21.50;51.50;;;;;;5093291;28;20446;-68
2021/01/10 06:46:32;;;;;;;1.77;1.20;;;21.50;51.50;;;;;;5093368;28;20913;-68
2021/01/10 06:49:00;;;;;;;1.50;1.40;;;21.50;51.50;;;;;;5093298;28;20473;-68
2021/01/10 06:51:28;;;;;;;1.47;1.23;;;21.50;51.50;;;;;;5093374;28;20848;-68
2021/01/10 06:53:54;;;;;;;1.37;1.20;;;21.50;51.50;;;;;;5093349;28;20757;-67
2021/01/10 06:56:21;;;;;;;2.60;1.57;;;21.50;51.50;;;;;;5093020;28;20414;-68
2021/01/10 06:59:11;;;;;;;1.77;1.10;;;21.50;51.50;;;;;;5093420;28;20442;-68
2021/01/10 07:01:48;;;;;;;1.30;1.20;;;21.50;51.50;;;;;;5092887;28;20449;-68
2021/01/10 07:04:21;;;;;;;1.43;1.10;;;21.50;51.60;;;;;;5093086;28;20534;-68
2021/01/10 07:06:48;;;;;;;1.30;1.00;;;21.50;51.60;;;;;;5093098;28;20408;-68
2021/01/10 07:09:15;;;;;;;1.87;1.10;;;21.50;51.50;;;;;;5092959;28;20914;-68
2021/01/10 07:11:41;;;;;;;2.07;1.10;;;21.50;51.50;;;;;;5093307;28;20443;-67
2021/01/10 07:14:13;;;;;;;1.80;1.30;;;21.50;51.50;;;;;;5091791;28;20431;-67
2021/01/10 07:16:40;;;;;;;2.27;1.30;;;21.50;51.50;;;;;;5093117;28;20482;-68
2021/01/10 07:19:07;;;;;;;1.40;1.10;;;21.50;51.50;;;;;;5093233;28;20428;-68
2021/01/10 07:21:47;;;;;;;2.13;1.60;;;21.50;51.50;;;;;;5093310;28;20418;-68
2021/01/10 07:24:12;;;;;;;1.30;1.20;;;21.60;51.50;;;;;;5091601;28;20542;-68
2021/01/10 07:26:44;;;;;;;1.70;1.60;;;21.50;51.50;;;;;;5092947;28;20502;-68
2021/01/10 07:29:43;;;;;;;1.70;1.03;;;21.50;51.50;;;;;;5092886;28;20186;-68
2021/01/10 07:32:19;;;;;;;1.30;0.90;;;21.60;51.60;;;;;;5093218;28;20381;-68
2021/01/10 07:34:44;;;;;;;1.10;0.97;;;21.50;51.50;;;;;;5093213;28;20765;-68
2021/01/10 07:37:31;;;;;;;2.90;1.40;;;21.60;51.60;;;;;;5092908;28;20424;-68
2021/01/10 07:40:08;;;;;;;1.30;1.10;;;21.60;51.60;;;;;;5093016;28;20174;-68
2021/01/10 07:42:38;;;;;;;2.07;1.47;;;21.60;51.60;;;;;;5091482;28;20937;-68
2021/01/10 07:45:22;;;;;;;1.20;1.00;;;21.60;51.50;;;;;;5093193;28;20448;-68
2021/01/10 07:47:53;;;;;;;1.70;1.50;;;21.60;51.60;;;;;;5096844;28;20450;-68
2021/01/10 07:50:20;;;;;;;1.40;1.00;;;21.60;51.50;;;;;;5097020;28;20388;-68
2021/01/10 07:52:51;;;;;;;1.50;1.10;;;21.60;51.50;;;;;;5096905;28;20936;-68
2021/01/10 07:55:23;;;;;;;1.67;1.10;;;21.60;51.50;;;;;;5096842;28;20408;-66
2021/01/10 07:58:00;;;;;;;1.47;1.10;;;21.60;51.50;;;;;;5096844;28;20477;-68
2021/01/10 08:00:32;;;;;;;1.70;1.20;;;21.60;51.60;;;;;;5096497;28;20439;-68
2021/01/10 08:03:02;;;;;;;1.60;1.27;;;21.60;51.50;;;;;;5096745;28;20814;-68
2021/01/10 08:05:35;;;;;;;1.70;1.17;;;21.60;51.50;;;;;;5096548;28;20822;-68
2021/01/10 08:08:13;;;;;;;1.50;1.10;;;21.60;51.60;;;;;;5094970;28;20429;-68
2021/01/10 08:10:52;;;;;;;2.37;1.40;;;21.60;51.50;;;;;;5096686;28;20469;-68
2021/01/10 08:13:27;;;;;;;2.40;1.37;;;21.60;51.50;;;;;;5096492;28;20436;-71
2021/01/10 08:15:54;;;;;;;1.47;1.07;;;21.60;51.50;;;;;;5096185;28;20411;-70
2021/01/10 08:18:21;;;;;;;1.90;1.20;;;21.60;51.50;;;;;;5096039;28;20793;-70
2021/01/10 08:20:56;;;;;;;1.57;1.17;;;21.70;51.50;;;;;;5096099;28;20407;-69
2021/01/10 08:23:22;;;;;;;1.33;1.20;;;21.60;51.40;;;;;;5096114;28;20407;-68
2021/01/10 08:25:49;;;;;;;1.53;1.20;;;21.70;51.50;;;;;;5095981;28;20406;-68
2021/01/10 08:28:18;;;;;;;1.80;1.30;;;21.70;51.50;;;;;;5095919;28;20419;-65
2021/01/10 08:30:46;;;;;;;1.87;1.40;;;21.70;51.50;;;;;;5095962;28;20418;-65
2021/01/10 08:33:19;;;;;;;1.70;1.23;;;21.70;51.40;;;;;;5095881;28;20404;-68
2021/01/10 08:35:45;;;;;;;1.77;1.10;;;21.70;51.40;;;;;;5095822;28;20404;-66
2021/01/10 08:38:10;;;;;;;1.63;1.20;;;21.70;51.40;;;;;;5095851;28;20956;-66
2021/01/10 08:40:36;;;;;;;2.40;1.30;;;21.70;51.40;;;;;;5095530;28;20412;-67
2021/01/10 08:43:03;;;;;;;3.10;1.63;;;21.70;51.40;;;;;;5095969;28;20432;-67
2021/01/10 08:45:29;;;;;;;1.27;1.17;;;21.70;51.40;;;;;;5095730;28;20657;-68
2021/01/10 08:47:55;;;;;;;1.70;1.30;;;21.70;51.40;;;;;;5095836;28;20439;-69
2021/01/10 08:50:20;;;;;;;1.63;1.40;;;21.80;51.50;;;;;;5096068;28;20407;-69
2021/01/10 08:52:55;;;;;;;2.03;1.60;;;21.80;51.50;;;;;;5095786;28;20158;-68
2021/01/10 08:55:38;;;;;;;1.97;1.40;;;21.80;51.50;;;;;;5095605;28;20515;-67
2021/01/10 08:58:07;;;;;;;1.33;1.10;;;21.80;51.50;;;;;;5095745;28;20995;-69
2021/01/10 09:00:33;;;;;;;1.70;1.27;;;21.70;51.50;;;;;;5095440;28;20423;-70
2021/01/10 09:03:17;;;;;;;2.17;1.20;;;21.80;51.50;;;;;;5094018;28;20416;-69
2021/01/10 09:05:44;;;;;;;1.10;0.97;;;21.80;51.50;;;;;;5095364;28;20790;-68
2021/01/10 09:08:39;;;;;;;1.77;1.47;;;21.80;51.50;;;;;;5095082;28;20428;-71
2021/01/10 09:11:10;;;;;;;1.40;1.20;;;21.80;51.50;;;;;;5089502;28;20416;-71
2021/01/10 09:13:39;;;;;;;2.00;1.33;;;21.80;51.50;;;;;;5094958;28;20410;-70
2021/01/10 09:16:07;;;;;;;1.50;1.40;;;21.80;51.50;;;;;;5094808;28;20404;-72
2021/01/10 09:18:36;;;;;;;1.70;1.10;;;21.80;51.50;;;;;;5095440;28;20987;-69
2021/01/10 09:21:16;;;;;;;2.40;1.33;;;21.90;51.50;;;;;;5094906;28;20398;-69
2021/01/10 09:23:53;;;;;;;1.60;1.50;;;21.80;51.40;;;;;;5094843;28;20545;-69
2021/01/10 09:26:30;;;;;;;1.83;1.27;;;21.80;51.60;;;;;;5095131;28;20482;-69
2021/01/10 09:28:59;;;;;;;1.30;1.20;;;21.80;51.50;;;;;;5094396;28;20427;-69
2021/01/10 09:31:41;;;;;;;2.20;1.17;;;21.80;51.50;;;;;;5094639;28;20457;-69
2021/01/10 09:34:07;;;;;;;2.00;1.67;;;21.80;51.50;;;;;;5094677;28;20457;-69
2021/01/10 09:36:33;;;;;;;1.90;1.30;;;21.80;51.50;;;;;;5094616;28;20404;-70
2021/01/10 09:38:59;;;;;;;2.30;1.40;;;21.80;51.40;;;;;;5094362;28;20197;-68
2021/01/10 09:41:25;;;;;;;2.17;1.90;;;21.80;51.40;;;;;;5094568;28;20172;-69
2021/01/10 09:43:55;;;;;;;1.63;1.37;;;21.80;51.40;;;;;;5094383;28;20498;-69
2021/01/10 09:46:31;;;;;;;1.57;1.30;;;21.90;51.50;;;;;;5094512;28;20154;-69
2021/01/10 09:49:02;;;;;;;2.67;2.17;;;21.80;51.40;;;;;;5094620;28;20464;-69
2021/01/10 09:51:39;;;;;;;2.30;1.90;;;21.80;51.40;;;;;;5093106;28;20429;-69
2021/01/10 09:54:15;;;;;;;3.10;2.60;;;21.80;51.40;;;;;;5094609;28;20769;-69
2021/01/10 09:56:40;;;;;;;2.03;1.70;;;21.80;51.40;;;;;;5094360;28;20761;-69
2021/01/10 09:59:41;;;;;;;1.93;1.70;;;21.80;51.40;;;;;;5094414;28;20419;-69
2021/01/10 10:02:17;;;;;;;4.23;2.17;;;21.80;51.40;;;;;;5094817;28;20587;-68
2021/01/10 10:04:45;;;;;;;3.80;2.00;;;21.80;51.40;;;;;;5094139;28;20447;-69
2021/01/10 10:07:12;;;;;;;2.50;2.17;;;21.80;51.40;;;;;;5094244;28;20454;-69
2021/01/10 10:09:48;;;;;;;3.53;2.10;;;21.80;51.40;;;;;;5093458;28;20495;-69
2021/01/10 10:12:15;;;;;;;2.93;1.83;;;21.80;51.40;;;;;;5093970;28;20388;-69
2021/01/10 10:14:53;;;;;;;3.03;2.10;;;21.80;51.40;;;;;;5093908;28;20403;-69
2021/01/10 10:17:25;;;;;;;2.10;1.70;;;21.80;51.40;;;;;;5094072;28;20794;-69
2021/01/10 10:19:51;;;;;;;3.67;1.93;;;21.80;51.40;;;;;;5093844;28;20550;-69
2021/01/10 10:22:31;;;;;;;3.27;2.27;;;21.80;51.40;;;;;;5093763;28;20482;-69
2021/01/10 10:24:57;;;;;;;3.33;2.20;;;21.80;51.40;;;;;;5093182;28;20355;-69
2021/01/10 10:27:29;;;;;;;3.90;2.23;;;21.80;51.50;;;;;;5093854;28;20761;-69
2021/01/10 10:29:55;;;;;;;3.50;1.83;;;21.80;51.40;;;;;;5093955;28;20986;-69
2021/01/10 10:32:21;;;;;;;2.90;2.57;;;21.80;51.40;;;;;;5093485;28;20510;-69
2021/01/10 10:34:47;;;;;;;2.80;2.40;;;21.80;51.40;;;;;;5093867;28;20495;-69
2021/01/10 10:37:14;;;;;;;3.30;2.40;;;21.80;51.40;;;;;;5093284;28;20846;-69
2021/01/10 10:39:39;;;;;;;6.03;2.37;;;21.80;51.50;;;;;;5093406;28;20447;-69
2021/01/10 10:42:08;;;;;;;3.30;2.30;;;21.80;51.40;;;;;;5093498;28;20438;-69
2021/01/10 10:44:34;;;;;;;3.40;2.47;;;21.80;51.40;;;;;;5093342;28;20731;-68
2021/01/10 10:47:00;;;;;;;3.37;2.40;;;21.80;51.40;;;;;;5093290;28;20403;-67
2021/01/10 10:49:26;;;;;;;4.17;2.73;;;21.70;51.40;;;;;;5094050;28;20154;-68
2021/01/10 10:51:51;;;;;;;4.20;2.43;;;21.80;51.40;;;;;;5093620;28;20403;-67
2021/01/10 10:54:17;;;;;;;3.43;2.27;;;21.80;51.40;;;;;;5093594;28;20201;-68
2021/01/10 10:56:43;;;;;;;3.93;2.20;;;21.80;51.40;;;;;;5092053;28;20182;-68
2021/01/10 10:59:09;;;;;;;4.80;2.50;;;21.80;51.40;;;;;;5091787;28;20239;-68
2021/01/10 11:01:41;;;;;;;3.53;2.40;;;21.80;51.40;;;;;;5093107;28;20461;-72
2021/01/10 11:04:07;;;;;;;6.17;2.43;;;21.80;51.30;;;;;;5093331;28;20223;-72
2021/01/10 11:06:33;;;;;;;11.10;2.43;;;21.80;51.30;;;;;;5093209;28;20484;-70
2021/01/10 11:08:59;;;;;;;5.97;2.80;;;21.80;51.30;;;;;;5093089;28;20220;-72
2021/01/10 11:11:45;;;;;;;5.40;2.50;;;21.80;51.20;;;;;;5091781;28;20449;-70
2021/01/10 11:14:12;;;;;;;4.47;2.33;;;21.90;51.80;;;;;;5093339;28;20890;-70
2021/01/10 11:16:41;;;;;;;5.17;2.57;;;21.80;51.20;;;;;;5093005;28;20929;-71
2021/01/10 11:19:07;;;;;;;4.67;2.93;;;21.80;51.20;;;;;;5092945;28;20863;-71
2021/01/10 11:21:37;;;;;;;5.70;2.80;;;21.80;51.20;;;;;;5095771;28;20384;-70
2021/01/10 11:24:04;;;;;;;7.90;2.97;;;21.90;51.30;;;;;;5097098;28;20479;-71
2021/01/10 11:26:32;;;;;;;4.60;2.73;;;21.80;51.20;;;;;;5096937;28;20430;-71
2021/01/10 11:28:58;;;;;;;4.80;2.50;;;21.80;51.20;;;;;;5097035;28;20824;-71
2021/01/10 11:31:24;;;;;;;4.13;2.37;;;21.80;51.20;;;;;;5097355;28;20399;-69
2021/01/10 11:33:50;;;;;;;5.53;2.93;;;21.90;51.20;;;;;;5096722;28;20414;-71
2021/01/10 11:36:16;;;;;;;5.50;2.97;;;21.90;51.20;;;;;;5096952;28;20777;-72
2021/01/10 11:38:42;;;;;;;5.07;2.33;;;21.90;51.20;;;;;;5097075;28;20434;-71
2021/01/10 11:41:10;;;;;;;5.77;2.90;;;21.90;51.20;;;;;;5097128;28;20174;-72
2021/01/10 11:43:37;;;;;;;5.13;2.50;;;21.90;51.20;;;;;;5096776;28;20489;-71
2021/01/10 11:46:07;;;;;;;5.50;2.23;;;21.90;51.20;;;;;;5096775;28;20395;-76
2021/01/10 11:48:34;;;;;;;6.33;2.23;;;21.90;51.20;;;;;;5096842;28;20477;-70
2021/01/10 11:51:01;;;;;;;3.30;2.10;;;21.80;51.20;;;;;;5096630;28;20408;-70
2021/01/10 11:53:27;;;;;;;3.37;2.30;;;21.90;51.30;;;;;;5096988;28;20400;-71
2021/01/10 11:55:53;;;;;;;7.03;2.10;;;21.90;51.30;;;;;;5096807;28;20403;-71
2021/01/10 11:58:18;;;;;;;4.70;2.37;;;21.80;51.30;;;;;;5096599;28;20189;-70
2021/01/10 12:00:44;;;;;;;5.03;2.97;;;21.90;51.40;;;;;;5096731;28;20213;-71
2021/01/10 12:03:10;;;;;;;5.73;3.17;;;21.80;51.30;;;;;;5095209;28;20541;-71
2021/01/10 12:05:39;;;;;;;5.13;2.27;;;21.80;51.40;;;;;;5096605;28;20720;-71
2021/01/10 12:08:05;;;;;;;2.80;2.27;;;21.80;51.40;;;;;;5096430;28;20181;-71
2021/01/10 12:10:32;;;;;;;3.50;2.47;;;21.80;51.40;;;;;;5096417;28;20435;-71
2021/01/10 12:12:58;;;;;;;5.83;2.30;;;21.80;51.40;;;;;;5096382;28;20763;-71
2021/01/10 12:15:23;;;;;;;2.27;1.83;;;21.80;51.40;;;;;;5096173;28;20404;-71
2021/01/10 12:17:49;;;;;;;3.33;2.73;;;21.80;51.40;;;;;;5096078;28;20194;-71
2021/01/10 12:20:15;;;;;;;2.60;2.40;;;21.80;51.50;;;;;;5095568;28;20794;-70
2021/01/10 12:22:41;;;;;;;2.30;2.10;;;21.70;51.40;;;;;;5096312;28;20261;-71
2021/01/10 12:25:07;;;;;;;3.43;2.23;;;21.70;51.40;;;;;;5096254;28;20197;-70
2021/01/10 12:27:33;;;;;;;2.90;2.60;;;21.70;51.40;;;;;;5096046;28;20671;-70
2021/01/10 12:29:59;;;;;;;2.63;2.00;;;21.70;51.40;;;;;;5095982;28;20403;-71
2021/01/10 12:32:28;;;;;;;2.13;1.90;;;21.70;51.40;;;;;;5095931;28;20170;-71
2021/01/10 12:34:54;;;;;;;2.70;2.30;;;21.70;51.50;;;;;;5095889;28;20165;-71
2021/01/10 12:37:20;;;;;;;1.90;1.73;;;21.70;51.50;;;;;;5095740;28;20419;-71
2021/01/10 12:39:45;;;;;;;2.93;1.90;;;21.70;51.50;;;;;;5094567;28;20813;-70
2021/01/10 12:42:15;;;;;;;4.33;2.43;;;21.70;52.00;;;;;;5095969;28;20166;-72
2021/01/10 12:44:41;;;;;;;2.50;2.00;;;21.70;51.50;;;;;;5095963;28;20193;-71
2021/01/10 12:47:08;;;;;;;5.40;2.60;;;21.70;51.50;;;;;;5095893;28;20396;-70
2021/01/10 12:49:34;;;;;;;2.67;2.17;;;21.70;51.50;;;;;;5095818;28;20399;-71
2021/01/10 12:52:00;;;;;;;3.80;2.37;;;21.70;51.50;;;;;;5095876;28;20766;-71
2021/01/10 12:54:25;;;;;;;2.17;1.97;;;21.70;51.50;;;;;;5094213;28;20226;-70